createdAt,value
2018-12-06T00:00:11.052Z,4.60
2018-12-06T00:02:38.556Z,4.60
2018-12-06T00:05:06.171Z,4.60
2018-12-06T00:07:33.668Z,4.60
2018-12-06T00:10:01.199Z,4.60
2018-12-06T00:12:28.731Z,4.60
2018-12-06T00:18:42.044Z,4.60
2018-12-06T00:21:09.536Z,4.60
2018-12-06T00:23:37.063Z,4.50
2018-12-06T00:26:04.547Z,4.50
2018-12-06T00:28:32.072Z,4.50
2018-12-06T00:30:59.564Z,4.50
2018-12-06T00:33:27.085Z,4.50
2018-12-06T00:35:54.584Z,4.50
2018-12-06T00:38:22.591Z,4.50
2018-12-06T00:40:50.080Z,4.50
2018-12-06T00:43:17.572Z,4.50
2018-12-06T00:45:45.097Z,4.50
2018-12-06T00:48:12.591Z,4.50
2018-12-06T00:50:40.120Z,4.50
2018-12-06T00:53:07.607Z,4.50
2018-12-06T00:55:35.091Z,4.50
2018-12-06T00:58:02.607Z,4.50
2018-12-06T01:00:30.100Z,4.50
2018-12-06T01:02:57.616Z,4.50
2018-12-06T01:05:25.200Z,4.60
2018-12-06T01:07:52.721Z,4.60
2018-12-06T01:10:20.291Z,4.60
2018-12-06T01:12:47.812Z,4.60
2018-12-06T01:15:15.304Z,4.60
2018-12-06T01:17:42.822Z,4.70
2018-12-06T01:20:10.316Z,4.70
2018-12-06T01:22:37.847Z,4.70
2018-12-06T01:25:05.719Z,4.70
2018-12-06T01:27:33.212Z,4.80
2018-12-06T01:30:00.727Z,4.70
2018-12-06T01:32:28.220Z,4.80
2018-12-06T01:34:55.747Z,4.80
2018-12-06T01:37:23.236Z,4.80
2018-12-06T01:39:50.728Z,4.80
2018-12-06T01:42:18.251Z,4.80
2018-12-06T01:44:45.745Z,4.80
2018-12-06T01:47:13.279Z,4.80
2018-12-06T01:49:40.776Z,4.80
2018-12-06T01:52:08.312Z,4.80
2018-12-06T01:54:35.803Z,4.90
2018-12-06T01:57:03.323Z,4.90
2018-12-06T01:59:30.817Z,4.90
2018-12-06T02:01:58.339Z,4.90
2018-12-06T02:04:25.830Z,4.90
2018-12-06T02:06:53.320Z,4.90
2018-12-06T02:09:20.842Z,4.90
2018-12-06T02:11:48.331Z,4.90
2018-12-06T02:14:15.844Z,4.90
2018-12-06T02:16:43.940Z,4.90
2018-12-06T02:19:11.562Z,4.90
2018-12-06T02:21:39.047Z,4.90
2018-12-06T02:24:06.560Z,4.90
2018-12-06T02:26:34.047Z,4.90
2018-12-06T02:29:01.567Z,4.90
2018-12-06T02:31:29.052Z,4.90
2018-12-06T02:33:56.577Z,4.90
2018-12-06T02:36:24.077Z,4.90
2018-12-06T02:38:51.603Z,4.80
2018-12-06T02:41:19.092Z,4.80
2018-12-06T02:43:46.603Z,4.80
2018-12-06T02:46:14.088Z,4.70
2018-12-06T02:48:41.615Z,4.70
2018-12-06T02:51:09.108Z,4.70
2018-12-06T02:53:36.628Z,4.70
2018-12-06T02:56:04.115Z,4.70
2018-12-06T02:58:31.636Z,4.70
2018-12-06T03:00:59.118Z,4.70
2018-12-06T03:03:26.635Z,4.70
2018-12-06T03:05:54.120Z,4.70
2018-12-06T03:08:21.653Z,4.70
2018-12-06T03:10:49.140Z,4.70
2018-12-06T03:13:16.633Z,4.70
2018-12-06T03:15:44.148Z,4.80
2018-12-06T03:18:11.631Z,4.80
2018-12-06T03:20:40.145Z,4.80
2018-12-06T03:23:07.635Z,4.80
2018-12-06T03:25:35.124Z,4.80
2018-12-06T03:28:02.638Z,4.80
2018-12-06T03:30:30.131Z,4.80
2018-12-06T03:32:57.653Z,4.80
2018-12-06T03:35:25.139Z,4.80
2018-12-06T03:37:52.651Z,4.80
2018-12-06T03:40:20.139Z,4.80
2018-12-06T03:42:47.658Z,4.90
2018-12-06T03:45:15.148Z,4.90
2018-12-06T03:47:42.631Z,4.90
2018-12-06T03:50:10.147Z,4.80
2018-12-06T03:52:37.639Z,4.90
2018-12-06T03:55:05.231Z,4.90
2018-12-06T03:57:32.716Z,4.90
2018-12-06T04:00:00.235Z,4.90
2018-12-06T04:02:27.727Z,4.90
2018-12-06T04:04:55.243Z,4.90
2018-12-06T04:07:22.727Z,5.00
2018-12-06T04:09:50.251Z,5.00
2018-12-06T04:12:17.740Z,5.00
2018-12-06T04:14:45.228Z,5.00
2018-12-06T04:17:12.752Z,5.10
2018-12-06T04:19:40.250Z,5.10
2018-12-06T04:22:07.767Z,5.10
2018-12-06T04:24:35.261Z,5.20
2018-12-06T04:27:02.775Z,5.20
2018-12-06T04:29:30.268Z,5.20
2018-12-06T04:31:57.793Z,5.30
2018-12-06T04:34:25.285Z,5.30
2018-12-06T04:36:52.805Z,5.30
2018-12-06T04:39:20.416Z,5.30
2018-12-06T04:41:47.943Z,5.30
2018-12-06T04:44:15.440Z,5.30
2018-12-06T04:46:42.932Z,5.30
2018-12-06T04:49:10.457Z,5.30
2018-12-06T04:51:37.947Z,5.30
2018-12-06T04:54:05.464Z,5.30
2018-12-06T04:56:32.959Z,5.30
2018-12-06T04:59:00.476Z,5.40
2018-12-06T05:01:27.970Z,5.40
2018-12-06T05:03:55.711Z,5.40
2018-12-06T05:06:23.194Z,5.40
2018-12-06T05:08:50.711Z,5.40
2018-12-06T05:11:18.191Z,5.40
2018-12-06T05:13:45.711Z,5.40
2018-12-06T05:16:13.198Z,5.40
2018-12-06T05:18:40.719Z,5.50
2018-12-06T05:21:08.204Z,5.50
2018-12-06T05:23:35.694Z,5.40
2018-12-06T05:26:03.206Z,5.40
2018-12-06T05:28:30.691Z,5.40
2018-12-06T05:30:58.202Z,5.40
2018-12-06T05:33:25.686Z,5.50
2018-12-06T05:35:53.204Z,5.50
2018-12-06T05:38:20.689Z,5.50
2018-12-06T05:40:48.207Z,5.50
2018-12-06T05:43:15.691Z,5.50
2018-12-06T05:45:45.189Z,5.50
2018-12-06T05:48:12.755Z,5.50
2018-12-06T05:50:40.243Z,5.50
2018-12-06T05:53:07.755Z,5.50
2018-12-06T05:55:35.239Z,5.50
2018-12-06T05:58:02.751Z,5.50
2018-12-06T06:00:30.235Z,5.50
2018-12-06T06:02:57.747Z,5.50
2018-12-06T06:05:25.231Z,5.60
2018-12-06T06:07:52.750Z,5.60
2018-12-06T06:10:20.235Z,5.60
2018-12-06T06:12:47.746Z,5.60
2018-12-06T06:15:15.233Z,5.60
2018-12-06T06:17:42.748Z,5.60
2018-12-06T06:20:10.351Z,5.60
2018-12-06T06:22:37.864Z,5.60
2018-12-06T06:25:05.443Z,5.60
2018-12-06T06:27:32.968Z,5.60
2018-12-06T06:30:00.455Z,5.60
2018-12-06T06:32:27.967Z,5.60
2018-12-06T06:34:55.451Z,5.60
2018-12-06T06:37:22.969Z,5.60
2018-12-06T06:39:50.455Z,5.70
2018-12-06T06:42:17.970Z,5.70
2018-12-06T06:44:45.451Z,5.70
2018-12-06T06:47:12.967Z,5.70
2018-12-06T06:49:40.453Z,5.70
2018-12-06T06:52:07.974Z,5.70
2018-12-06T06:54:35.460Z,5.70
2018-12-06T06:57:02.984Z,5.70
2018-12-06T06:59:30.472Z,5.80
2018-12-06T07:01:57.956Z,5.80
2018-12-06T07:04:25.467Z,5.80
2018-12-06T07:06:52.964Z,5.80
2018-12-06T07:09:20.495Z,5.80
2018-12-06T07:11:48.014Z,5.80
2018-12-06T07:14:15.645Z,5.80
2018-12-06T07:16:43.219Z,5.80
2018-12-06T07:19:10.743Z,5.80
2018-12-06T07:21:38.227Z,5.80
2018-12-06T07:24:05.738Z,5.80
2018-12-06T07:26:33.321Z,5.80
2018-12-06T07:29:00.959Z,5.80
2018-12-06T07:31:28.443Z,5.80
2018-12-06T07:33:55.958Z,5.80
2018-12-06T07:36:23.452Z,5.80
2018-12-06T07:38:50.967Z,5.90
2018-12-06T07:41:18.452Z,5.90
2018-12-06T07:43:45.972Z,5.90
2018-12-06T07:46:13.459Z,5.90
2018-12-06T07:48:40.972Z,5.90
2018-12-06T07:51:08.458Z,5.90
2018-12-06T07:53:38.115Z,5.90
2018-12-06T07:56:05.691Z,6.00
2018-12-06T07:58:33.175Z,5.90
2018-12-06T08:01:00.691Z,5.90
2018-12-06T08:03:28.859Z,6.00
2018-12-06T08:05:56.375Z,6.00
2018-12-06T08:08:23.859Z,6.00
2018-12-06T08:10:51.379Z,6.00
2018-12-06T08:13:18.890Z,6.10
2018-12-06T08:15:47.727Z,6.00
2018-12-06T08:18:15.243Z,6.10
2018-12-06T08:20:42.727Z,6.10
2018-12-06T08:23:10.282Z,6.10
2018-12-06T08:25:37.771Z,6.10
2018-12-06T08:28:05.652Z,6.10
2018-12-06T08:30:33.159Z,6.10
2018-12-06T08:33:00.679Z,6.20
2018-12-06T08:35:28.172Z,6.20
2018-12-06T08:37:55.691Z,6.20
2018-12-06T08:40:23.235Z,6.20
2018-12-06T08:42:50.747Z,6.20
2018-12-06T08:45:18.231Z,6.20
2018-12-06T08:47:45.827Z,6.30
2018-12-06T08:50:15.370Z,6.30
2018-12-06T08:52:42.889Z,6.30
2018-12-06T08:55:11.035Z,6.30
2018-12-06T08:57:38.559Z,6.40
2018-12-06T09:00:09.109Z,6.40
2018-12-06T09:02:36.625Z,6.50
2018-12-06T09:05:05.883Z,6.50
2018-12-06T09:07:33.484Z,6.50
2018-12-06T09:10:01.625Z,6.60
2018-12-06T09:12:29.140Z,6.60
2018-12-06T09:14:56.635Z,6.50
2018-12-06T09:17:24.152Z,6.50
2018-12-06T09:19:51.639Z,6.60
2018-12-06T09:22:19.903Z,6.60
2018-12-06T09:24:47.387Z,6.60
2018-12-06T09:27:14.904Z,6.60
2018-12-06T09:29:42.392Z,6.60
2018-12-06T09:32:09.922Z,6.60
2018-12-06T09:34:37.419Z,6.60
2018-12-06T09:37:04.939Z,6.60
2018-12-06T09:39:32.422Z,6.70
2018-12-06T09:41:59.936Z,6.70
2018-12-06T09:44:27.421Z,6.80
2018-12-06T09:46:55.792Z,6.70
2018-12-06T09:49:23.285Z,6.80
2018-12-06T09:51:50.807Z,6.80
2018-12-06T09:54:18.295Z,6.90
2018-12-06T09:56:45.809Z,7.00
2018-12-06T09:59:13.290Z,7.00
2018-12-06T10:01:40.803Z,7.10
2018-12-06T10:04:08.283Z,7.10
2018-12-06T10:06:35.794Z,7.10
2018-12-06T10:09:05.249Z,7.20
2018-12-06T10:11:36.274Z,7.30
2018-12-06T10:14:03.810Z,7.50
2018-12-06T10:16:31.341Z,7.60
2018-12-06T10:18:58.919Z,7.60
2018-12-06T10:21:27.023Z,7.70
2018-12-06T10:23:54.507Z,7.80
2018-12-06T10:26:22.027Z,7.90
2018-12-06T10:28:49.515Z,8.10
2018-12-06T10:31:17.032Z,8.40
2018-12-06T10:33:44.530Z,8.70
2018-12-06T10:36:12.042Z,9.10
2018-12-06T10:38:39.529Z,9.40
2018-12-06T10:41:07.044Z,9.80
2018-12-06T10:43:34.527Z,9.90
2018-12-06T10:46:02.043Z,10.00
2018-12-06T10:48:29.532Z,10.10
2018-12-06T10:51:05.053Z,10.00
2018-12-06T10:53:32.571Z,9.90
2018-12-06T10:56:00.088Z,9.70
2018-12-06T10:58:27.578Z,9.60
2018-12-06T11:01:00.792Z,9.40
2018-12-06T11:03:28.566Z,9.30
2018-12-06T11:05:56.079Z,9.30
2018-12-06T11:08:23.564Z,9.20
2018-12-06T11:10:51.514Z,9.10
2018-12-06T11:13:19.003Z,9.10
2018-12-06T11:15:46.938Z,9.00
2018-12-06T11:18:14.455Z,9.00
2018-12-06T11:20:43.615Z,9.00
2018-12-06T11:23:11.128Z,9.00
2018-12-06T11:25:38.647Z,9.10
2018-12-06T11:28:06.131Z,9.10
2018-12-06T11:30:33.657Z,9.20
2018-12-06T11:33:01.156Z,9.30
2018-12-06T11:35:28.672Z,9.30
2018-12-06T11:37:56.162Z,9.40
2018-12-06T11:40:23.675Z,9.40
2018-12-06T11:42:51.162Z,9.50
2018-12-06T11:45:18.679Z,9.50
2018-12-06T11:47:46.166Z,9.50
2018-12-06T11:50:13.763Z,9.50
2018-12-06T11:52:41.247Z,9.50
2018-12-06T11:55:08.759Z,9.50
2018-12-06T11:57:36.243Z,9.50
2018-12-06T12:00:04.827Z,9.50
2018-12-06T12:02:32.315Z,9.50
2018-12-06T12:04:59.827Z,9.60
2018-12-06T12:07:27.311Z,9.50
2018-12-06T12:09:54.823Z,9.60
2018-12-06T12:12:22.311Z,9.60
2018-12-06T12:14:50.962Z,9.60
2018-12-06T12:17:18.743Z,9.60
2018-12-06T12:19:46.254Z,9.60
2018-12-06T12:22:13.739Z,9.70
2018-12-06T12:24:41.251Z,9.80
2018-12-06T12:27:08.735Z,9.80
2018-12-06T12:29:36.250Z,9.90
2018-12-06T12:32:03.739Z,10.00
2018-12-06T12:34:31.254Z,10.10
2018-12-06T12:36:58.746Z,10.20
2018-12-06T12:39:26.267Z,10.20
2018-12-06T12:41:53.755Z,10.20
2018-12-06T12:44:21.275Z,10.30
2018-12-06T12:46:48.762Z,10.40
2018-12-06T12:49:16.276Z,10.40
2018-12-06T12:51:43.764Z,10.50
2018-12-06T12:54:11.271Z,10.50
2018-12-06T12:56:38.750Z,10.50
2018-12-06T12:59:06.345Z,10.40
2018-12-06T13:01:33.827Z,10.30
2018-12-06T13:04:01.339Z,10.30
2018-12-06T13:06:28.826Z,10.20
2018-12-06T13:08:56.338Z,10.20
2018-12-06T13:11:23.819Z,10.20
2018-12-06T13:13:51.331Z,10.20
2018-12-06T13:16:18.814Z,10.20
2018-12-06T13:18:46.327Z,10.30
2018-12-06T13:21:13.813Z,10.30
2018-12-06T13:23:41.332Z,10.40
2018-12-06T13:26:08.895Z,10.40
2018-12-06T13:28:36.416Z,10.50
2018-12-06T13:31:03.899Z,10.60
2018-12-06T13:33:31.411Z,10.60
2018-12-06T13:35:58.895Z,10.60
2018-12-06T13:38:26.407Z,10.60
2018-12-06T13:40:53.939Z,10.70
2018-12-06T13:43:21.531Z,10.80
2018-12-06T13:45:49.015Z,10.70
2018-12-06T13:48:16.532Z,10.70
2018-12-06T13:50:44.013Z,10.70
2018-12-06T13:53:11.523Z,10.70
2018-12-06T13:55:39.007Z,10.70
2018-12-06T13:58:06.662Z,10.70
2018-12-06T14:00:34.442Z,10.70
2018-12-06T14:03:02.240Z,10.60
2018-12-06T14:05:29.723Z,10.60
2018-12-06T14:07:57.235Z,10.70
2018-12-06T14:10:24.719Z,10.60
2018-12-06T14:12:52.315Z,10.70
2018-12-06T14:15:19.795Z,10.70
2018-12-06T14:17:47.307Z,10.70
2018-12-06T14:20:14.794Z,10.70
2018-12-06T14:22:42.307Z,10.70
2018-12-06T14:25:09.876Z,10.70
2018-12-06T14:27:37.390Z,10.70
2018-12-06T14:30:05.640Z,10.70
2018-12-06T14:32:33.156Z,10.70
2018-12-06T14:35:00.639Z,10.70
2018-12-06T14:37:28.155Z,10.70
2018-12-06T14:39:55.723Z,10.70
2018-12-06T14:42:23.235Z,10.70
2018-12-06T14:44:50.745Z,10.70
2018-12-06T14:47:18.427Z,10.70
2018-12-06T14:49:45.907Z,10.60
2018-12-06T14:52:13.419Z,10.60
2018-12-06T14:54:41.487Z,10.60
2018-12-06T14:57:08.998Z,10.60
2018-12-06T14:59:36.480Z,10.60
2018-12-06T15:02:04.070Z,10.60
2018-12-06T15:04:31.555Z,10.60
2018-12-06T15:06:59.068Z,10.60
2018-12-06T15:09:26.551Z,10.60
2018-12-06T15:11:54.070Z,10.60
2018-12-06T15:14:21.555Z,10.50
2018-12-06T15:16:49.043Z,10.50
2018-12-06T15:19:16.556Z,10.50
2018-12-06T15:21:44.047Z,10.50
2018-12-06T15:24:11.559Z,10.60
2018-12-06T15:26:39.039Z,10.60
2018-12-06T15:29:06.595Z,10.60
2018-12-06T15:31:34.082Z,10.50
2018-12-06T15:34:01.646Z,10.50
2018-12-06T15:36:29.163Z,10.50
2018-12-06T15:38:56.643Z,10.50
2018-12-06T15:41:24.159Z,10.50
2018-12-06T15:43:51.645Z,10.50
2018-12-06T15:46:19.159Z,10.50
2018-12-06T15:48:46.723Z,10.50
2018-12-06T15:51:14.237Z,10.50
2018-12-06T15:53:41.718Z,10.50
2018-12-06T15:56:09.231Z,10.60
2018-12-06T15:58:36.714Z,10.60
2018-12-06T16:01:05.572Z,10.50
2018-12-06T16:03:33.175Z,10.50
2018-12-06T16:06:00.697Z,10.50
2018-12-06T16:08:28.271Z,10.50
2018-12-06T16:10:55.759Z,10.50
2018-12-06T16:13:23.270Z,10.50
2018-12-06T16:15:51.027Z,10.50
2018-12-06T16:18:18.687Z,10.50
2018-12-06T16:20:46.178Z,10.50
2018-12-06T16:23:13.689Z,10.50
2018-12-06T16:25:41.227Z,10.50
2018-12-06T16:28:08.741Z,10.50
2018-12-06T16:30:36.227Z,10.50
2018-12-06T16:33:03.735Z,10.40
2018-12-06T16:35:31.223Z,10.40
2018-12-06T16:37:58.739Z,10.40
2018-12-06T16:40:26.221Z,10.40
2018-12-06T16:42:53.735Z,10.40
2018-12-06T16:45:21.219Z,10.40
2018-12-06T16:47:48.735Z,10.40
2018-12-06T16:50:16.223Z,10.50
2018-12-06T16:52:43.739Z,10.50
2018-12-06T16:55:11.222Z,10.40
2018-12-06T16:57:38.850Z,10.40
2018-12-06T17:00:10.287Z,10.40
2018-12-06T17:02:37.803Z,10.40
2018-12-06T17:05:05.459Z,10.40
2018-12-06T17:07:32.976Z,10.40
2018-12-06T17:10:00.467Z,10.40
2018-12-06T17:12:27.983Z,10.40
2018-12-06T17:14:55.466Z,10.40
2018-12-06T17:17:22.982Z,10.30
2018-12-06T17:19:50.476Z,10.30
2018-12-06T17:22:17.999Z,10.40
2018-12-06T17:24:45.495Z,10.30
2018-12-06T17:27:12.986Z,10.30
2018-12-06T17:29:40.587Z,10.30
2018-12-06T17:32:08.079Z,10.30
2018-12-06T17:34:35.595Z,10.30
2018-12-06T17:37:03.083Z,10.30
2018-12-06T17:39:30.599Z,10.30
2018-12-06T17:41:58.119Z,10.30
2018-12-06T17:44:25.602Z,10.30
2018-12-06T17:46:53.122Z,10.30
2018-12-06T17:49:20.623Z,10.30
2018-12-06T17:51:48.139Z,10.30
2018-12-06T17:54:15.633Z,10.30
2018-12-06T17:56:43.152Z,10.40
2018-12-06T17:59:10.647Z,10.40
2018-12-06T18:01:38.163Z,10.40
2018-12-06T18:04:05.651Z,10.30
2018-12-06T18:06:33.255Z,10.30
2018-12-06T18:09:00.747Z,10.30
2018-12-06T18:11:28.241Z,10.30
2018-12-06T18:13:55.763Z,10.30
2018-12-06T18:16:23.280Z,10.40
2018-12-06T18:18:50.779Z,10.40
2018-12-06T18:21:18.309Z,10.40
2018-12-06T18:23:45.799Z,10.40
2018-12-06T18:26:13.287Z,10.40
2018-12-06T18:28:40.814Z,10.40
2018-12-06T18:31:08.306Z,10.40
2018-12-06T18:33:36.536Z,10.50
2018-12-06T18:36:04.105Z,10.50
2018-12-06T18:38:31.624Z,10.50
2018-12-06T18:40:59.111Z,10.50
2018-12-06T18:43:26.628Z,10.50
2018-12-06T18:45:54.120Z,10.60
2018-12-06T18:48:21.634Z,10.60
2018-12-06T18:50:49.199Z,10.60
2018-12-06T18:53:16.715Z,10.60
2018-12-06T18:55:44.207Z,10.60
2018-12-06T18:58:11.719Z,10.70
2018-12-06T19:00:39.978Z,10.70
2018-12-06T19:03:07.490Z,10.70
2018-12-06T19:05:34.974Z,10.70
2018-12-06T19:08:02.491Z,10.70
2018-12-06T19:10:29.983Z,10.70
2018-12-06T19:12:57.499Z,10.70
2018-12-06T19:15:24.983Z,10.70
2018-12-06T19:17:52.496Z,10.70
2018-12-06T19:20:19.980Z,10.70
2018-12-06T19:22:47.498Z,10.70
2018-12-06T19:25:14.983Z,10.70
2018-12-06T19:27:42.508Z,10.60
2018-12-06T19:30:10.159Z,10.60
2018-12-06T19:32:37.675Z,10.60
2018-12-06T19:35:05.343Z,10.60
2018-12-06T19:37:32.943Z,10.60
2018-12-06T19:40:00.435Z,10.60
2018-12-06T19:42:27.951Z,10.60
2018-12-06T19:44:55.435Z,10.70
2018-12-06T19:47:22.951Z,10.70
2018-12-06T19:49:50.435Z,10.70
2018-12-06T19:52:18.235Z,10.70
2018-12-06T19:54:45.725Z,10.70
2018-12-06T19:57:13.280Z,10.70
2018-12-06T19:59:40.767Z,10.70
2018-12-06T20:02:08.281Z,10.70
2018-12-06T20:04:35.769Z,10.70
2018-12-06T20:07:03.285Z,10.70
2018-12-06T20:09:30.773Z,10.70
2018-12-06T20:11:58.300Z,10.70
2018-12-06T20:14:25.786Z,10.70
2018-12-06T20:16:53.302Z,10.70
2018-12-06T20:19:20.788Z,10.70
2018-12-06T20:21:48.303Z,10.70
2018-12-06T20:24:15.788Z,10.70
2018-12-06T20:26:43.303Z,10.70
2018-12-06T20:29:11.227Z,10.70
2018-12-06T20:31:38.858Z,10.70
2018-12-06T20:34:06.347Z,10.70
2018-12-06T20:36:33.871Z,10.70
2018-12-06T20:39:01.355Z,10.70
2018-12-06T20:41:28.871Z,10.70
2018-12-06T20:43:56.363Z,10.80
2018-12-06T20:46:23.879Z,10.80
2018-12-06T20:48:51.362Z,10.80
2018-12-06T20:51:18.887Z,10.80
2018-12-06T20:53:46.382Z,10.80
2018-12-06T20:56:13.890Z,10.80
2018-12-06T20:58:41.375Z,10.90
2018-12-06T21:01:08.891Z,10.90
2018-12-06T21:03:36.466Z,10.90
2018-12-06T21:06:04.119Z,11.00
2018-12-06T21:08:31.605Z,11.00
2018-12-06T21:10:59.122Z,11.00
2018-12-06T21:13:26.603Z,11.00
2018-12-06T21:15:54.119Z,11.00
2018-12-06T21:18:21.614Z,11.00
2018-12-06T21:20:49.127Z,11.00
2018-12-06T21:23:16.608Z,11.00
2018-12-06T21:25:44.126Z,11.00
2018-12-06T21:28:11.615Z,11.00
2018-12-06T21:30:39.139Z,11.00
2018-12-06T21:33:06.627Z,11.00
2018-12-06T21:35:34.139Z,11.00
2018-12-06T21:38:01.623Z,11.10
2018-12-06T21:40:29.132Z,11.10
2018-12-06T21:42:56.615Z,11.10
2018-12-06T21:45:24.131Z,11.10
2018-12-06T21:47:51.615Z,11.10
2018-12-06T21:50:19.130Z,11.10
2018-12-06T21:52:46.611Z,11.10
2018-12-06T21:55:14.122Z,11.10
2018-12-06T21:57:41.606Z,11.10
2018-12-06T22:00:10.416Z,11.20
2018-12-06T22:02:38.091Z,11.20
2018-12-06T22:05:05.695Z,11.20
2018-12-06T22:07:33.211Z,11.20
2018-12-06T22:10:00.705Z,11.20
2018-12-06T22:12:28.222Z,11.30
2018-12-06T22:14:55.715Z,11.30
2018-12-06T22:17:23.234Z,11.30
2018-12-06T22:19:50.742Z,11.30
2018-12-06T22:22:18.359Z,11.30
2018-12-06T22:24:45.843Z,11.30
2018-12-06T22:27:13.390Z,11.30
2018-12-06T22:29:40.895Z,11.30
2018-12-06T22:32:08.387Z,11.30
2018-12-06T22:34:35.911Z,11.30
2018-12-06T22:37:03.402Z,11.30
2018-12-06T22:39:30.920Z,11.40
2018-12-06T22:41:58.419Z,11.40
2018-12-06T22:44:25.934Z,11.40
2018-12-06T22:46:53.419Z,11.40
2018-12-06T22:49:21.028Z,11.40
2018-12-06T22:51:48.519Z,11.40
2018-12-06T22:54:16.027Z,11.40
2018-12-06T22:56:43.522Z,11.40
2018-12-06T22:59:11.046Z,11.50
2018-12-06T23:01:40.367Z,11.50
2018-12-06T23:04:08.222Z,11.50
2018-12-06T23:06:35.937Z,11.50
2018-12-06T23:09:06.190Z,11.50
2018-12-06T23:11:33.707Z,11.50
2018-12-06T23:14:01.191Z,11.50
2018-12-06T23:16:28.718Z,11.50
2018-12-06T23:18:56.204Z,11.50
2018-12-06T23:21:23.719Z,11.50
2018-12-06T23:23:51.231Z,11.50
2018-12-06T23:26:18.715Z,11.50
2018-12-06T23:28:46.219Z,11.50
2018-12-06T23:31:13.703Z,11.50
2018-12-06T23:33:41.223Z,11.50
2018-12-06T23:36:08.703Z,11.50
2018-12-06T23:38:36.188Z,11.50
2018-12-06T23:41:03.707Z,11.50
2018-12-06T23:43:31.196Z,11.50
2018-12-06T23:45:58.719Z,11.60
2018-12-06T23:48:26.203Z,11.60
2018-12-06T23:50:57.676Z,11.60
2018-12-06T23:53:25.283Z,11.60
2018-12-06T23:55:52.803Z,11.60
2018-12-06T23:58:20.291Z,11.60
